Terminal Aerodrome Forecast
Issued by NWS Brownsville, TX

Home | Current Version | Previous Version | Text Only | Print | Product List | Glossary On
Versions: 1 2 3 4 5 6 7 8 9 10 11 12
000
FTUS44 KBRO 212300
TAFBRO
TAF
KBRO 212320Z 2200/2224 14017G25KT P6SM FEW040
     FM220200 14012KT P6SM BKN250
     FM220700 15007KT P6SM BKN250
     FM221400 14015G20KT P6SM FEW040=

USA.gov is the U.S. government's official web portal to all federal, state and local government web resources and services.